Time;durP1;ratioP1;P1;durP2;ratioP2;P2;SDS_P1;SDS_P2;PMS_P1;PMS_P2;Temp;Humidity;BMP_temperature;BMP_pressure;BME280_temperature;BME280_humidity;BME280_pressure;Samples;Min_cycle;Max_cycle;Signal;HPM_P1;HPM_P2
2023/03/17 00:01:59;;;;;;;3.60;2.00;;;;;;;3.31;67.04;99708.30;107335;1260;69735;-37
2023/03/17 00:04:27;;;;;;;5.00;1.80;;;;;;;3.31;66.53;99711.20;107310;1260;73976;-38
2023/03/17 00:06:56;;;;;;;4.40;1.90;;;;;;;3.25;66.47;99706.45;107337;1258;60821;-37
2023/03/17 00:09:25;;;;;;;3.80;2.00;;;;;;;3.21;66.61;99703.77;107377;1260;61565;-38
2023/03/17 00:11:54;;;;;;;2.70;1.50;;;;;;;3.12;66.60;99696.73;107316;1257;74281;-38
2023/03/17 00:14:23;;;;;;;2.50;1.30;;;;;;;3.21;66.64;99706.77;107301;1257;69846;-37
2023/03/17 00:16:52;;;;;;;2.60;1.20;;;;;;;3.24;66.32;99707.68;107330;1260;72497;-38
2023/03/17 00:19:32;;;;;;;3.70;1.70;;;;;;;3.21;66.13;99708.29;107367;1258;60876;-38
2023/03/17 00:22:01;;;;;;;;;;;;;;;3.17;66.00;99707.08;107355;1257;61534;-38
2023/03/17 00:24:30;;;;;;;4.10;1.70;;;;;;;3.10;66.07;99708.63;107321;1257;74351;-38
2023/03/17 00:27:01;;;;;;;5.40;1.80;;;;;;;3.06;66.33;99714.71;107329;1258;69806;-37
2023/03/17 00:29:32;;;;;;;3.30;1.70;;;;;;;3.08;66.31;99716.70;107367;1260;73878;-38
2023/03/17 00:32:01;;;;;;;4.70;2.10;;;;;;;3.07;66.01;99718.37;107329;1260;60807;-37
2023/03/17 00:34:31;;;;;;;3.20;2.10;;;;;;;3.05;66.16;99720.12;107266;1260;61523;-37
2023/03/17 00:37:00;;;;;;;4.80;2.00;;;;;;;3.02;66.28;99722.83;107254;1258;72664;-37
2023/03/17 00:39:29;;;;;;;4.60;2.30;;;;;;;3.08;66.47;99721.63;107304;1257;69346;-37
2023/03/17 00:41:58;;;;;;;4.70;2.60;;;;;;;3.15;66.41;99720.93;107226;1260;73568;-38
2023/03/17 00:44:27;;;;;;;4.70;2.10;;;;;;;3.18;66.48;99720.17;107314;1263;60754;-37
2023/03/17 00:46:57;;;;;;;4.30;2.00;;;;;;;3.22;66.34;99717.56;107381;1256;61342;-38
2023/03/17 00:49:28;;;;;;;2.80;1.80;;;;;;;3.28;66.31;99718.02;107328;1257;74042;-38
2023/03/17 00:51:56;;;;;;;4.50;2.10;;;;;;;3.31;66.21;99715.33;107350;1257;69896;-37
2023/03/17 00:54:25;;;;;;;3.00;1.80;;;;;;;3.31;66.24;99712.98;107315;1261;73767;-37
2023/03/17 00:56:54;;;;;;;2.90;1.80;;;;;;;3.30;66.08;99709.36;107286;1260;60458;-38
2023/03/17 00:59:28;;;;;;;4.90;2.00;;;;;;;3.26;66.19;99713.94;107367;1258;61573;-39
2023/03/17 01:01:56;;;;;;;3.70;1.70;;;;;;;3.23;66.32;99712.79;107386;1260;73882;-37
2023/03/17 01:04:26;;;;;;;5.40;2.20;;;;;;;3.28;66.43;99711.98;107375;1260;69910;-37
2023/03/17 01:06:57;;;;;;;3.70;1.90;;;;;;;3.34;66.26;99715.37;107352;1260;73879;-38
2023/03/17 01:09:26;;;;;;;3.80;1.70;;;;;;;3.34;66.23;99713.50;107313;1260;60732;-38
2023/03/17 01:11:54;;;;;;;4.50;1.70;;;;;;;3.34;66.17;99716.95;107315;1257;61547;-38
2023/03/17 01:14:23;;;;;;;4.50;2.10;;;;;;;3.33;66.25;99717.91;107372;1256;74265;-38
2023/03/17 01:16:52;;;;;;;4.00;1.70;;;;;;;3.30;66.07;99717.56;107299;1257;68971;-38
2023/03/17 01:19:21;;;;;;;3.80;2.00;;;;;;;3.26;66.23;99715.92;107298;1261;73553;-38
2023/03/17 01:21:49;;;;;;;4.00;2.00;;;;;;;3.23;66.39;99718.68;107287;1257;60585;-37
2023/03/17 01:24:18;;;;;;;4.90;2.10;;;;;;;3.19;66.44;99723.38;107377;1260;61523;-38
2023/03/17 01:26:47;;;;;;;3.00;1.90;;;;;;;3.14;66.49;99723.92;107379;1259;72814;-38
2023/03/17 01:29:16;;;;;;;2.80;1.70;;;;;;;3.16;66.65;99725.42;107337;1257;69982;-38
2023/03/17 01:31:46;;;;;;;4.60;1.90;;;;;;;3.22;66.76;99727.52;107347;1260;72998;-38
2023/03/17 01:34:21;;;;;;;3.30;2.00;;;;;;;3.26;66.61;99733.89;107252;1257;60395;-37
2023/03/17 01:36:50;;;;;;;3.50;1.90;;;;;;;3.28;66.78;99731.11;107289;1260;61685;-37
2023/03/17 01:39:19;;;;;;;4.60;2.30;;;;;;;3.28;66.69;99735.14;107193;1257;73979;-38
2023/03/17 01:42:08;;;;;;;3.80;2.40;;;;;;;3.25;66.66;99734.33;107197;1258;69859;-38
2023/03/17 01:44:55;;;;;;;2.60;1.60;;;;;;;3.21;66.91;99737.31;107264;1257;72853;-38
2023/03/17 01:47:24;;;;;;;5.00;2.50;;;;;;;3.20;67.12;99736.48;107171;1257;60787;-38
2023/03/17 01:49:55;;;;;;;3.30;1.80;;;;;;;3.19;67.25;99737.30;107302;1262;61533;-38
2023/03/17 01:52:24;;;;;;;3.10;1.80;;;;;;;3.19;67.13;99740.85;107314;1258;72717;-38
2023/03/17 01:55:05;;;;;;;3.50;1.90;;;;;;;3.30;67.32;99744.52;107333;1258;69921;-39
2023/03/17 01:57:52;;;;;;;4.10;1.60;;;;;;;3.37;67.13;99746.70;107262;1260;72708;-39
2023/03/17 02:00:22;;;;;;;5.70;2.10;;;;;;;3.37;67.06;99752.55;107226;1261;59710;-39
2023/03/17 02:02:54;;;;;;;3.00;2.00;;;;;;;3.35;66.78;99752.91;107281;1257;59593;-39
2023/03/17 02:05:28;;;;;;;5.30;2.20;;;;;;;3.32;66.61;99754.70;107295;1257;74196;-39
2023/03/17 02:07:57;;;;;;;4.40;2.10;;;;;;;3.28;66.65;99757.91;107241;1258;68777;-37
2023/03/17 02:10:32;;;;;;;4.40;2.50;;;;;;;3.25;66.88;99761.28;107344;1260;72917;-38
2023/03/17 02:13:04;;;;;;;6.20;2.30;;;;;;;3.22;66.66;99761.88;107377;1257;60949;-38
2023/03/17 02:15:38;;;;;;;4.60;2.00;;;;;;;3.17;66.55;99759.52;107287;1258;61490;-37
2023/03/17 02:18:07;;;;;;;5.30;1.80;;;;;;;3.19;66.46;99761.47;107359;1257;72755;-38
2023/03/17 02:20:38;;;;;;;3.40;1.60;;;;;;;3.21;66.41;99763.35;107318;1258;69948;-38
2023/03/17 02:23:10;;;;;;;2.80;1.60;;;;;;;3.23;66.37;99769.58;107297;1258;72851;-38
2023/03/17 02:25:41;;;;;;;3.30;1.80;;;;;;;3.22;66.39;99774.10;107256;1258;60645;-37
2023/03/17 02:28:15;;;;;;;4.40;1.50;;;;;;;3.21;66.45;99780.39;107325;1260;61609;-38
2023/03/17 02:30:44;;;;;;;3.60;1.50;;;;;;;3.19;65.89;99777.64;107286;1260;74191;-38
2023/03/17 02:33:16;;;;;;;1.90;1.50;;;;;;;3.16;65.56;99778.42;107343;1260;69650;-38
2023/03/17 02:35:48;;;;;;;4.60;1.80;;;;;;;3.07;65.87;99775.17;107301;1257;73891;-38
2023/03/17 02:38:18;;;;;;;3.00;1.70;;;;;;;3.08;65.86;99780.77;107277;1260;60727;-38
2023/03/17 02:40:46;;;;;;;3.50;1.50;;;;;;;3.06;65.85;99781.65;107275;1256;61557;-38
2023/03/17 02:43:15;;;;;;;1.70;1.40;;;;;;;3.13;65.96;99781.52;107159;1257;74062;-38
2023/03/17 02:45:44;;;;;;;5.60;2.00;;;;;;;3.13;65.69;99777.90;107231;1257;69806;-38
2023/03/17 02:48:14;;;;;;;1.80;1.20;;;;;;;3.14;65.64;99783.71;107322;1258;73877;-38
2023/03/17 02:50:43;;;;;;;2.80;1.60;;;;;;;3.13;65.88;99788.61;107204;1258;60565;-38
2023/03/17 02:53:16;;;;;;;4.80;1.80;;;;;;;3.13;65.90;99791.93;107287;1257;61552;-37
2023/03/17 02:55:46;;;;;;;2.80;1.60;;;;;;;3.13;65.88;99791.55;107334;1258;74090;-38
2023/03/17 02:58:14;;;;;;;3.80;2.20;;;;;;;3.15;66.07;99792.00;107308;1260;68776;-38
2023/03/17 03:00:43;;;;;;;4.50;1.80;;;;;;;3.13;66.09;99790.16;107328;1257;72911;-38
2023/03/17 03:03:12;;;;;;;2.80;1.30;;;;;;;3.12;66.24;99789.59;106587;1258;1003671;-38
2023/03/17 03:05:46;;;;;;;4.00;1.80;;;;;;;3.08;66.60;99791.80;107298;1257;61326;-37
2023/03/17 03:08:15;;;;;;;3.30;1.90;;;;;;;3.10;66.80;99792.15;107292;1256;74097;-38
2023/03/17 03:10:44;;;;;;;3.70;1.50;;;;;;;3.13;66.72;99791.45;107378;1258;69967;-38
2023/03/17 03:13:14;;;;;;;3.20;1.90;;;;;;;3.12;66.66;99797.04;107354;1257;73907;-38
2023/03/17 03:15:44;;;;;;;2.70;1.60;;;;;;;3.10;66.84;99790.49;107342;1258;60547;-38
2023/03/17 03:18:12;;;;;;;6.50;2.00;;;;;;;3.09;66.82;99793.46;107364;1260;61216;-37
2023/03/17 03:20:43;;;;;;;4.00;1.80;;;;;;;3.06;66.80;99797.20;107385;1257;75354;-38
2023/03/17 03:23:12;;;;;;;6.20;1.80;;;;;;;3.04;66.89;99799.27;107287;1260;69593;-38
2023/03/17 03:25:41;;;;;;;5.00;1.60;;;;;;;3.03;67.12;99803.32;107350;1257;72778;-38
2023/03/17 03:28:11;;;;;;;5.30;1.90;;;;;;;3.02;67.07;99798.83;107286;1260;60489;-38
2023/03/17 03:30:40;;;;;;;4.30;1.90;;;;;;;3.02;67.22;99803.08;107279;1258;61392;-38
2023/03/17 03:33:09;;;;;;;2.10;1.40;;;;;;;3.11;66.82;99800.81;107313;1256;75044;-38
2023/03/17 03:35:38;;;;;;;4.40;2.20;;;;;;;3.14;66.76;99802.63;107164;1257;70088;-38
2023/03/17 03:38:12;;;;;;;4.20;1.70;;;;;;;3.12;66.61;99803.56;107237;1260;72865;-38
2023/03/17 03:40:41;;;;;;;5.50;1.90;;;;;;;3.10;66.59;99801.46;107265;1257;60542;-38
2023/03/17 03:43:10;;;;;;;4.40;2.00;;;;;;;3.10;66.88;99803.92;107316;1255;61314;-39
2023/03/17 03:45:51;;;;;;;6.40;2.30;;;;;;;3.09;66.85;99801.88;107348;1258;75084;-38
2023/03/17 03:48:20;;;;;;;3.50;1.90;;;;;;;2.99;67.10;99800.73;107337;1257;69748;-38
2023/03/17 03:50:49;;;;;;;3.30;1.50;;;;;;;3.02;67.31;99807.83;107368;1257;73850;-38
2023/03/17 03:53:19;;;;;;;5.50;2.10;;;;;;;3.04;67.28;99805.66;106564;1256;1003669;-38
2023/03/17 03:55:50;;;;;;;5.10;2.20;;;;;;;3.05;67.23;99810.55;107279;1257;61435;-38
2023/03/17 03:58:19;;;;;;;4.00;1.90;;;;;;;3.03;67.30;99818.27;107351;1257;75034;-38
2023/03/17 04:00:48;;;;;;;5.50;1.80;;;;;;;2.99;67.22;99820.64;107329;1257;69928;-39
2023/03/17 04:03:16;;;;;;;5.10;2.00;;;;;;;2.95;67.37;99825.00;107237;1257;73883;-38
2023/03/17 04:05:45;;;;;;;4.00;2.10;;;;;;;2.93;67.50;99830.61;107242;1260;60754;-38
2023/03/17 04:08:17;;;;;;;5.70;1.80;;;;;;;2.90;67.40;99833.98;107213;1257;61360;-38
2023/03/17 04:10:47;;;;;;;4.70;2.00;;;;;;;2.93;67.70;99841.48;107308;1256;75009;-38
2023/03/17 04:13:15;;;;;;;5.10;1.90;;;;;;;2.99;67.70;99841.15;107357;1257;69945;-39
2023/03/17 04:15:45;;;;;;;4.30;2.50;;;;;;;3.03;67.67;99838.58;107346;1257;73674;-38
2023/03/17 04:18:15;;;;;;;4.20;1.70;;;;;;;3.02;67.56;99840.08;107350;1257;60599;-38
2023/03/17 04:20:44;;;;;;;4.60;1.70;;;;;;;3.00;67.55;99846.11;107369;1257;61541;-38
2023/03/17 04:23:12;;;;;;;4.00;1.80;;;;;;;2.99;67.38;99847.01;107340;1256;75051;-38
2023/03/17 04:25:41;;;;;;;3.10;1.90;;;;;;;2.97;67.44;99849.88;107413;1260;69706;-38
2023/03/17 04:28:11;;;;;;;;;;;;;;;2.95;67.44;99848.75;107309;1256;74944;-38
2023/03/17 04:30:41;;;;;;;4.10;1.70;;;;;;;2.93;67.39;99850.54;107353;1257;62413;-38
2023/03/17 04:33:10;;;;;;;2.80;1.80;;;;;;;2.95;67.42;99852.32;107370;1257;61522;-38
2023/03/17 04:35:38;;;;;;;4.00;2.20;;;;;;;2.97;67.39;99856.57;107328;1257;74812;-39
2023/03/17 04:38:10;;;;;;;4.20;1.90;;;;;;;2.98;67.32;99860.20;107342;1258;69760;-38
2023/03/17 04:40:39;;;;;;;2.90;1.70;;;;;;;2.97;67.35;99860.47;107337;1256;73892;-38
2023/03/17 04:43:09;;;;;;;7.80;2.20;;;;;;;2.95;67.49;99860.73;107322;1260;60545;-38
2023/03/17 04:45:37;;;;;;;3.20;1.70;;;;;;;2.94;67.24;99863.81;107444;1258;60484;-38
2023/03/17 04:48:06;;;;;;;3.10;1.90;;;;;;;2.93;67.17;99865.27;107428;1257;75044;-38
2023/03/17 04:50:36;;;;;;;4.60;1.90;;;;;;;2.92;67.07;99863.73;107398;1257;69909;-38
2023/03/17 04:53:05;;;;;;;3.60;1.60;;;;;;;2.96;67.17;99871.64;107262;1260;72885;-38
2023/03/17 04:55:34;;;;;;;3.10;1.70;;;;;;;3.00;67.09;99867.44;107316;1256;61025;-38
2023/03/17 04:58:05;;;;;;;6.20;2.00;;;;;;;3.01;66.77;99869.23;107355;1257;60312;-38
2023/03/17 05:00:37;;;;;;;4.50;1.60;;;;;;;3.00;67.02;99875.63;107357;1256;75102;-38
2023/03/17 05:03:06;;;;;;;4.40;1.80;;;;;;;3.03;66.90;99878.70;107354;1256;69703;-38
2023/03/17 05:06:00;;;;;;;3.40;1.70;;;;;;;3.04;66.72;99883.45;107286;1257;73960;-38
2023/03/17 05:08:29;;;;;;;3.90;1.70;;;;;;;3.02;66.86;99893.05;107350;1257;60171;-38
2023/03/17 05:10:57;;;;;;;3.40;1.50;;;;;;;3.03;66.86;99897.92;107318;1257;61514;-38
2023/03/17 05:13:26;;;;;;;4.80;1.60;;;;;;;3.03;66.75;99901.57;107383;1257;75151;-38
2023/03/17 05:15:55;;;;;;;2.20;1.30;;;;;;;3.02;66.53;99904.46;107329;1257;69974;-38
2023/03/17 05:18:24;;;;;;;3.80;1.00;;;;;;;3.12;66.56;99909.70;107353;1260;71410;-38
2023/03/17 05:20:53;;;;;;;2.40;1.60;;;;;;;3.20;66.49;99909.08;107324;1257;61638;-38
2023/03/17 05:23:22;;;;;;;4.30;1.50;;;;;;;3.22;66.55;99914.66;107328;1260;61762;-38
2023/03/17 05:25:56;;;;;;;4.20;1.50;;;;;;;3.24;66.34;99915.85;107243;1260;74825;-38
2023/03/17 05:28:25;;;;;;;2.90;1.90;;;;;;;3.25;66.12;99914.83;106549;1257;1003180;-38
2023/03/17 05:30:54;;;;;;;3.40;1.70;;;;;;;3.25;65.83;99919.58;107349;1257;73891;-38
2023/03/17 05:33:22;;;;;;;2.60;1.70;;;;;;;3.23;66.05;99920.64;107304;1257;60773;-38
2023/03/17 05:35:52;;;;;;;3.90;2.30;;;;;;;3.21;66.25;99919.86;107286;1257;61445;-38
2023/03/17 05:38:21;;;;;;;5.30;2.30;;;;;;;3.18;66.05;99920.89;106498;1257;1003019;-38
2023/03/17 05:40:51;;;;;;;4.50;2.20;;;;;;;3.13;66.24;99921.21;107368;1256;69866;-38
2023/03/17 05:43:20;;;;;;;3.70;1.90;;;;;;;3.17;66.31;99926.45;107385;1256;73573;-38
2023/03/17 05:45:49;;;;;;;3.40;2.10;;;;;;;3.22;66.11;99929.92;107343;1257;60557;-38
2023/03/17 05:48:25;;;;;;;3.10;1.80;;;;;;;3.24;66.29;99926.56;107272;1257;61199;-38
2023/03/17 05:50:54;;;;;;;2.60;1.60;;;;;;;3.26;66.24;99928.67;107298;1257;73903;-39
2023/03/17 05:53:23;;;;;;;2.60;1.30;;;;;;;3.27;66.32;99927.58;107380;1260;69915;-38
2023/03/17 05:55:52;;;;;;;3.80;1.90;;;;;;;3.26;66.35;99927.98;107317;1257;73769;-38
2023/03/17 05:58:21;;;;;;;3.90;1.60;;;;;;;3.25;66.15;99929.08;107318;1257;60780;-38
2023/03/17 06:00:54;;;;;;;2.80;1.80;;;;;;;3.23;66.23;99927.95;107303;1256;61272;-38
2023/03/17 06:03:24;;;;;;;3.00;1.50;;;;;;;3.17;66.10;99929.82;107329;1257;73883;-38
2023/03/17 06:05:53;;;;;;;3.80;1.60;;;;;;;3.15;66.15;99935.70;107347;1258;69696;-39
2023/03/17 06:08:22;;;;;;;3.20;1.20;;;;;;;3.24;66.25;99937.07;107331;1256;73821;-38
2023/03/17 06:10:53;;;;;;;3.80;1.40;;;;;;;3.29;66.01;99936.48;107350;1256;60444;-39
2023/03/17 06:13:21;;;;;;;4.10;1.50;;;;;;;3.28;65.84;99947.61;107304;1256;61174;-39
2023/03/17 06:15:52;;;;;;;3.60;1.40;;;;;;;3.25;65.97;99948.73;107336;1257;74979;-39
2023/03/17 06:18:21;;;;;;;3.00;1.40;;;;;;;3.23;66.13;99948.84;107342;1260;70047;-38
2023/03/17 06:20:52;;;;;;;4.60;1.60;;;;;;;3.22;66.39;99951.36;107313;1255;73829;-38
2023/03/17 06:23:22;;;;;;;2.30;1.50;;;;;;;3.26;66.21;99953.48;107345;1257;60338;-39
2023/03/17 06:25:51;;;;;;;3.50;1.50;;;;;;;3.26;66.33;99957.39;107386;1257;60341;-39
2023/03/17 06:28:20;;;;;;;2.10;1.30;;;;;;;3.25;66.37;99957.10;107374;1257;75027;-38
2023/03/17 06:30:49;;;;;;;2.40;1.30;;;;;;;3.30;66.36;99958.23;107394;1256;69688;-39
2023/03/17 06:33:26;;;;;;;3.40;1.50;;;;;;;3.36;66.09;99956.36;107277;1256;73675;-39
2023/03/17 06:35:57;;;;;;;1.90;1.30;;;;;;;3.37;65.97;99956.23;107295;1256;60777;-39
2023/03/17 06:38:26;;;;;;;2.50;1.40;;;;;;;3.40;66.26;99957.89;107323;1257;61549;-39
2023/03/17 06:40:56;;;;;;;3.90;1.30;;;;;;;3.43;65.96;99960.88;107279;1256;75099;-39
2023/03/17 06:43:25;;;;;;;2.60;1.40;;;;;;;3.42;65.71;99966.48;107154;1257;69974;-39
2023/03/17 06:45:55;;;;;;;3.10;1.40;;;;;;;3.37;65.74;99969.73;107288;1256;72693;-39
2023/03/17 06:48:23;;;;;;;4.90;1.50;;;;;;;3.33;66.15;99970.88;107299;1256;60491;-38
2023/03/17 06:50:52;;;;;;;4.70;1.60;;;;;;;3.30;66.38;99968.34;107362;1257;61532;-38
2023/03/17 06:53:22;;;;;;;4.60;2.20;;;;;;;3.31;66.37;99973.91;107356;1257;74919;-38
2023/03/17 06:55:50;;;;;;;4.20;1.90;;;;;;;3.38;66.25;99975.19;107365;1257;68390;-39
2023/03/17 06:58:19;;;;;;;3.70;2.00;;;;;;;3.43;65.93;99972.83;107321;1257;73871;-39
2023/03/17 07:00:48;;;;;;;1.80;1.10;;;;;;;3.45;65.98;99972.31;107335;1256;61056;-39
2023/03/17 07:03:16;;;;;;;3.00;1.70;;;;;;;3.44;65.69;99974.86;107359;1257;61450;-39
2023/03/17 07:05:45;;;;;;;3.40;2.00;;;;;;;3.45;65.86;99973.08;107353;1257;75062;-39
2023/03/17 07:08:14;;;;;;;4.70;2.10;;;;;;;3.46;66.07;99973.38;107356;1258;68746;-39
2023/03/17 07:10:44;;;;;;;4.50;1.80;;;;;;;3.49;66.06;99971.60;107361;1257;73620;-39
2023/03/17 07:13:16;;;;;;;4.10;2.00;;;;;;;3.53;66.21;99974.30;107277;1260;60745;-39
2023/03/17 07:15:45;;;;;;;4.10;2.40;;;;;;;3.54;66.01;99973.70;107398;1256;61649;-39
2023/03/17 07:18:19;;;;;;;3.50;1.80;;;;;;;3.54;66.10;99973.85;107291;1257;74745;-39
2023/03/17 07:20:49;;;;;;;4.80;2.60;;;;;;;3.63;65.88;99974.92;107352;1256;69675;-39
2023/03/17 07:23:20;;;;;;;3.90;2.40;;;;;;;3.68;65.56;99971.70;107302;1257;72518;-39
2023/03/17 07:25:49;;;;;;;4.60;2.00;;;;;;;3.70;65.45;99973.88;107349;1256;60338;-39
2023/03/17 07:28:20;;;;;;;5.40;2.20;;;;;;;3.73;65.25;99974.50;107360;1260;60483;-39
2023/03/17 07:30:52;;;;;;;6.30;2.50;;;;;;;3.72;65.00;99974.63;107352;1255;73559;-39
2023/03/17 07:33:20;;;;;;;6.70;2.20;;;;;;;3.70;65.25;99976.07;107336;1257;69968;-38
2023/03/17 07:35:50;;;;;;;4.70;2.00;;;;;;;3.67;65.08;99976.45;107380;1257;73839;-38
2023/03/17 07:38:18;;;;;;;5.20;2.20;;;;;;;3.62;65.07;99979.92;107379;1257;60713;-38
2023/03/17 07:40:47;;;;;;;4.00;2.30;;;;;;;3.60;65.36;99981.57;107368;1256;60782;-38
2023/03/17 07:43:18;;;;;;;2.60;1.90;;;;;;;3.61;65.53;99984.23;107324;1259;75117;-38
2023/03/17 07:45:46;;;;;;;3.80;1.90;;;;;;;3.63;65.52;99981.52;107329;1256;70183;-39
2023/03/17 07:48:17;;;;;;;6.50;1.80;;;;;;;3.69;65.33;99985.09;107277;1257;73544;-38
2023/03/17 07:50:47;;;;;;;4.10;1.90;;;;;;;3.69;65.12;99988.05;107285;1256;60757;-38
2023/03/17 07:53:15;;;;;;;4.00;1.50;;;;;;;3.67;65.07;99988.98;107294;1255;61252;-38
2023/03/17 07:55:48;;;;;;;4.20;1.90;;;;;;;3.65;65.17;99995.61;107362;1257;74738;-38
2023/03/17 07:58:17;;;;;;;2.80;1.50;;;;;;;3.63;65.22;99996.75;107363;1257;69913;-38
2023/03/17 08:00:47;;;;;;;5.10;1.80;;;;;;;3.57;65.66;99994.92;107357;1257;73762;-38
2023/03/17 08:03:18;;;;;;;7.80;1.70;;;;;;;3.55;65.58;99997.98;107711;1253;59688;-38
2023/03/17 08:05:52;;;;;;;4.00;1.80;;;;;;;3.51;65.76;99998.04;107712;1253;61442;-38
2023/03/17 08:08:27;;;;;;;4.50;1.60;;;;;;;3.48;66.06;100000.90;107688;1253;74987;-38
2023/03/17 08:11:02;;;;;;;3.80;1.90;;;;;;;3.56;66.16;100003.58;107702;1256;70002;-38
2023/03/17 08:13:31;;;;;;;4.30;1.80;;;;;;;3.61;66.25;100005.19;107720;1254;73672;-38
2023/03/17 08:16:00;;;;;;;4.30;1.70;;;;;;;3.65;65.91;100005.77;107688;1254;60765;-38
2023/03/17 08:18:30;;;;;;;3.10;2.00;;;;;;;3.66;65.61;100010.58;107673;1253;61468;-38
2023/03/17 08:20:59;;;;;;;6.50;2.90;;;;;;;3.66;65.93;100012.06;107689;1254;73974;-38
2023/03/17 08:23:27;;;;;;;6.80;3.10;;;;;;;3.70;65.99;100015.70;107731;1254;69981;-38
2023/03/17 08:26:00;;;;;;;7.30;3.50;;;;;;;3.74;66.05;100012.45;107692;1254;73671;-38
2023/03/17 08:28:31;;;;;;;5.20;2.70;;;;;;;3.76;65.79;100017.90;107721;1252;60366;-38
2023/03/17 08:31:12;;;;;;;5.60;3.40;;;;;;;3.72;65.67;100015.61;107693;1252;60424;-38
2023/03/17 08:33:41;;;;;;;4.50;2.70;;;;;;;3.76;65.47;100020.29;107739;1254;75053;-38
2023/03/17 08:36:10;;;;;;;5.10;3.20;;;;;;;3.79;65.42;100021.10;107735;1256;69730;-38
2023/03/17 08:38:41;;;;;;;6.00;3.30;;;;;;;3.77;65.38;100026.55;107696;1254;73516;-38
2023/03/17 08:41:13;;;;;;;3.90;2.30;;;;;;;3.75;65.41;100025.83;107679;1254;60457;-38
2023/03/17 08:43:43;;;;;;;5.30;2.30;;;;;;;3.74;65.55;100027.26;107579;1254;61001;-38
2023/03/17 08:46:20;;;;;;;5.90;2.80;;;;;;;3.75;65.63;100028.10;107667;1253;73908;-38
2023/03/17 08:48:50;;;;;;;4.90;2.60;;;;;;;3.80;65.92;100028.07;107685;1254;68169;-38
2023/03/17 08:51:21;;;;;;;3.50;2.30;;;;;;;3.86;65.97;100030.95;107690;1254;73850;-38
2023/03/17 08:53:52;;;;;;;4.60;2.40;;;;;;;3.89;65.88;100034.95;107722;1252;60863;-38
2023/03/17 08:56:21;;;;;;;3.40;2.20;;;;;;;3.98;65.52;100031.73;106235;1253;1015654;-38
2023/03/17 08:58:50;;;;;;;4.70;2.80;;;;;;;4.04;65.30;100042.27;107660;1252;75049;-38
2023/03/17 09:01:21;;;;;;;2.60;2.00;;;;;;;4.05;64.75;100038.87;107578;1253;69215;-38
2023/03/17 09:03:52;;;;;;;3.70;2.00;;;;;;;3.97;65.11;100028.56;107612;1252;73649;-38
2023/03/17 09:06:24;;;;;;;2.80;1.70;;;;;;;4.00;65.22;100037.80;107531;1254;60389;-38
2023/03/17 09:08:56;;;;;;;3.10;2.10;;;;;;;4.01;64.89;100038.37;107541;1256;61412;-38
2023/03/17 09:11:26;;;;;;;5.90;3.20;;;;;;;4.01;65.10;100040.35;107662;1254;75026;-38
2023/03/17 09:13:59;;;;;;;4.60;3.00;;;;;;;4.01;65.37;100039.44;107597;1253;69926;-38
2023/03/17 09:16:32;;;;;;;4.30;2.50;;;;;;;4.03;65.29;100042.41;107726;1253;73811;-37
2023/03/17 09:19:02;;;;;;;3.10;2.00;;;;;;;4.00;65.06;100045.84;107760;1253;62582;-38
2023/03/17 09:21:31;;;;;;;3.00;2.10;;;;;;;4.05;64.99;100046.87;107684;1253;61469;-38
2023/03/17 09:23:59;;;;;;;6.80;2.70;;;;;;;4.09;64.99;100044.60;107701;1253;75119;-38
2023/03/17 09:26:30;;;;;;;3.10;2.10;;;;;;;4.10;65.09;100046.60;107758;1253;70230;-38
2023/03/17 09:28:58;;;;;;;3.80;2.20;;;;;;;4.11;64.96;100047.27;107674;1254;72932;-38
2023/03/17 09:31:27;;;;;;;4.50;2.00;;;;;;;4.12;64.96;100049.52;107631;1254;61258;-38
2023/03/17 09:33:58;;;;;;;3.10;2.30;;;;;;;4.13;64.80;100048.68;107756;1253;61199;-38
2023/03/17 09:36:27;;;;;;;4.60;2.70;;;;;;;4.13;65.00;100051.59;107719;1253;73953;-38
2023/03/17 09:38:55;;;;;;;3.80;2.40;;;;;;;4.15;65.09;100053.77;107732;1253;69922;-38
2023/03/17 09:41:56;;;;;;;4.30;2.40;;;;;;;4.18;64.95;100050.48;107701;1254;73831;-38
2023/03/17 09:45:05;;;;;;;4.70;2.10;;;;;;;4.20;64.67;100055.05;107558;1256;62391;-38
2023/03/17 09:47:55;;;;;;;6.10;3.80;;;;;;;4.23;64.67;100050.47;106951;1253;1016386;-38
2023/03/17 09:50:38;;;;;;;14.10;7.60;;;;;;;4.25;64.81;100049.10;107641;1254;74992;-38
2023/03/17 09:53:14;;;;;;;6.00;2.30;;;;;;;4.29;64.93;100051.52;107558;1254;69918;-38
2023/03/17 09:55:42;;;;;;;3.60;2.20;;;;;;;4.37;64.70;100050.08;107721;1254;73866;-38
2023/03/17 09:58:12;;;;;;;2.70;2.00;;;;;;;4.42;64.67;100052.17;107666;1254;60302;-38
2023/03/17 10:00:42;;;;;;;2.20;1.40;;;;;;;4.44;64.38;100053.23;107698;1254;61444;-38
2023/03/17 10:03:12;;;;;;;2.60;2.00;;;;;;;4.42;64.09;100049.89;107674;1254;74832;-38
2023/03/17 10:05:40;;;;;;;7.30;3.70;;;;;;;4.38;63.95;100052.99;107709;1254;68914;-39
2023/03/17 10:08:25;;;;;;;4.60;2.80;;;;;;;4.34;64.04;100052.45;107661;1254;73978;-38
2023/03/17 10:11:13;;;;;;;3.10;1.80;;;;;;;4.29;64.23;100057.17;107534;1253;60451;-38
2023/03/17 10:14:17;;;;;;;3.00;1.80;;;;;;;4.26;64.41;100061.67;107511;1253;61547;-38
2023/03/17 10:16:49;;;;;;;4.50;1.80;;;;;;;4.34;64.53;100066.06;107594;1254;75194;-38
2023/03/17 10:19:40;;;;;;;5.80;1.80;;;;;;;4.38;64.15;100069.27;107545;1254;69874;-38
2023/03/17 10:22:22;;;;;;;5.10;2.70;;;;;;;4.43;63.89;100066.59;107650;1252;74024;-38
2023/03/17 10:24:53;;;;;;;2.90;2.00;;;;;;;4.44;63.86;100069.85;107700;1252;60441;-38
2023/03/17 10:27:23;;;;;;;2.50;2.00;;;;;;;4.41;63.68;100072.05;107689;1254;61362;-37
2023/03/17 10:29:52;;;;;;;3.60;2.50;;;;;;;4.36;63.80;100076.65;107518;1254;74860;-38
2023/03/17 10:32:21;;;;;;;4.00;2.50;;;;;;;4.34;63.99;100077.63;107687;1253;69957;-38
2023/03/17 10:34:53;;;;;;;3.00;2.10;;;;;;;4.31;64.14;100077.19;107627;1254;73638;-37
2023/03/17 10:37:22;;;;;;;1.70;1.30;;;;;;;4.25;64.12;100075.83;107627;1254;60753;-38
2023/03/17 10:39:56;;;;;;;4.00;2.60;;;;;;;4.20;64.28;100078.83;107578;1254;61549;-38
2023/03/17 10:42:28;;;;;;;1.80;1.60;;;;;;;4.27;64.16;100078.67;107683;1253;73093;-38
2023/03/17 10:45:15;;;;;;;3.00;1.90;;;;;;;4.32;63.74;100081.89;107411;1254;69907;-37
2023/03/17 10:47:52;;;;;;;3.00;2.30;;;;;;;4.35;63.92;100083.28;107459;1254;73797;-37
2023/03/17 10:50:34;;;;;;;2.20;1.70;;;;;;;4.37;63.92;100084.65;107459;1254;60632;-37
2023/03/17 10:53:03;;;;;;;2.30;1.90;;;;;;;4.39;63.57;100083.00;107524;1254;61355;-37
2023/03/17 10:55:37;;;;;;;4.20;1.70;;;;;;;4.40;63.72;100080.82;107557;1254;73812;-37
2023/03/17 10:58:14;;;;;;;3.00;2.00;;;;;;;4.40;63.66;100079.46;107449;1254;70308;-38
2023/03/17 11:00:55;;;;;;;3.10;1.90;;;;;;;4.38;63.58;100081.88;107463;1254;73664;-38
2023/03/17 11:03:30;;;;;;;3.00;2.10;;;;;;;4.33;63.66;100081.83;107455;1254;59578;-38
2023/03/17 11:06:05;;;;;;;3.80;2.50;;;;;;;4.30;64.16;100078.29;107507;1254;60690;-37
2023/03/17 11:08:40;;;;;;;7.30;3.00;;;;;;;4.33;64.07;100079.78;107522;1253;74838;-38
2023/03/17 11:11:22;;;;;;;6.90;3.40;;;;;;;4.44;63.94;100081.81;107509;1254;69924;-38
2023/03/17 11:14:03;;;;;;;4.40;3.00;;;;;;;4.51;63.83;100076.94;107431;1254;73535;-37
2023/03/17 11:19:19;;;;;;;2.30;1.90;;;;;;;4.57;63.66;100079.01;104258;1292;600924;-38
2023/03/17 11:21:54;;;;;;;6.70;3.00;;;;;;;4.61;63.44;100078.21;106613;1266;60898;-38
2023/03/17 11:24:32;;;;;;;4.50;2.60;;;;;;;4.64;63.48;100080.67;106727;1267;61226;-38
2023/03/17 11:27:07;;;;;;;4.30;3.40;;;;;;;4.64;63.22;100081.48;106777;1267;73204;-38
2023/03/17 11:29:38;;;;;;;6.60;3.40;;;;;;;4.62;63.05;100082.17;106773;1267;69748;-38
2023/03/17 11:32:30;;;;;;;8.50;4.30;;;;;;;4.58;63.18;100085.70;106443;1266;387478;-38
2023/03/17 11:35:20;;;;;;;6.20;3.20;;;;;;;4.56;63.25;100083.16;106800;1263;59566;-38
2023/03/17 11:37:55;;;;;;;3.60;2.30;;;;;;;4.50;63.37;100086.84;106788;1266;59978;-38
2023/03/17 11:40:59;;;;;;;17.10;9.90;;;;;;;4.52;63.55;100083.45;106874;1268;73408;-38
2023/03/17 11:43:36;;;;;;;7.60;3.90;;;;;;;4.59;63.75;100088.73;106686;1264;69745;-38
2023/03/17 11:46:08;;;;;;;9.80;5.90;;;;;;;4.58;63.77;100086.27;106854;1264;72248;-38
2023/03/17 11:48:54;;;;;;;6.70;4.60;;;;;;;4.61;63.72;100086.11;106827;1263;60803;-38
2023/03/17 11:51:26;;;;;;;15.30;9.80;;;;;;;4.63;63.71;100090.04;106887;1264;61468;-38
2023/03/17 11:54:26;;;;;;;5.80;2.60;;;;;;;4.64;63.44;100090.81;106826;1267;73042;-39
2023/03/17 11:57:01;;;;;;;3.70;2.60;;;;;;;4.66;63.44;100090.77;106836;1264;69896;-38